Cactus Peak, Santa Catalina Island Weather observations

Data are for 10 minute period ending at time listed.
 Day   Time   Solar   Ave.   Ave.  Ave.  Vector    Max.   Stn.    Total
  of    of     Rad.   Air    Rel.  Wind   Wind     Wind   Baro.  Precip.
Year   Day            Temp.  Hum.  Speed  Dir.     Gust   Pres.         
2020   (PST)   W/m2    F      %     mph   deg.      mph    mb.     in.  
------------------------------------------------------------------------
 268    0:00    0.0    76   30.2     2     18.9     3.6    999.0   0.00  
 268    0:10    0.0    77   31.0     1    117.3     2.4    999.0   0.00  
 268    0:20    0.0    77   31.1     1    139.5     1.8    999.0   0.00  
 268    0:30    0.0    77   30.8     2    165.4     3.6    999.0   0.00  
 268    0:40    0.0    77   30.8     2    167.3     4.2    999.0   0.00  
 268    0:50    0.0    77   30.9     2    162.7     3.6    999.0   0.00  
 268    1:00    0.0    78   31.7     2    187.7     1.8    999.0   0.00  
 268    1:10    0.0    78   31.5     2    190.4     3.0    999.0   0.00  
 268    1:20    0.0    78   31.6     1    171.2     2.4    999.0   0.00  
 268    1:30    0.0    78   31.7     3    163.8     4.2    999.0   0.00  
 268    1:40    0.0    77   31.6     3    162.1     4.2    999.0   0.00  
 268    1:50    0.0    77   30.9     3    170.4     4.2    999.0   0.00  
 268    2:00    0.0    77   30.7     4    165.7     6.0    999.0   0.00  
 268    2:10    0.0    77   30.3     4    166.7     6.0    999.0   0.00  
 268    2:20    0.0    76   30.7     4    162.2     6.6    999.0   0.00  
 268    2:30    0.0    76   30.7     5    163.5     6.0    999.0   0.00  
 268    2:40    0.0    76   31.0     5    164.9     6.0    999.0   0.00  
 268    2:50    0.0    75   31.6     5    162.9     6.6    999.0   0.00  
 268    3:00    0.0    74   32.0     6    163.9     7.8    999.0   0.00  
 268    3:10    0.0    74   32.7     7    165.0     9.6    999.0   0.00  
 268    3:20    0.0    74   32.8     7    164.4     9.6    999.0   0.00  
 268    3:30    0.0    74   34.0     7    164.6     9.0    999.0   0.00  
 268    3:40    0.0    74   33.7     6    160.2     8.4    999.0   0.00  
 268    3:50    0.0    73   32.8     7    155.5    10.8    999.0   0.00  
 268    4:00    0.0    74   32.3     9    151.9    11.3    999.0   0.00  
 268    4:10    0.0    73   34.7     8    153.5    10.2    999.0   0.00  
 268    4:20    0.0    74   39.3     7    158.7     9.6    999.0   0.00  
 268    4:30    0.0    74   40.0     6    158.0     9.0    999.0   0.00  
 268    4:40    0.0    73   40.1     7    155.5     9.6    999.0   0.00  
 268    4:50    0.0    73   39.5     8    156.2    10.8    999.0   0.00  
 268    5:00    0.0    72   34.5    11    136.2    12.5    999.0   0.00  
 268    5:10    0.0    73   35.5    12    134.9    13.1    999.0   0.00  
 268    5:20    0.0    72   30.4    12    133.9    13.7    999.0   0.00  
 268    5:30    0.0    70   27.6    11    135.5    11.9    999.0   0.00  
 268    5:40    2.0    70   27.8    11    135.4    12.5    999.0   0.00  
 268    5:50    5.0    69   27.2    10    139.3    12.5    999.0   0.00  
 268    6:00   14.0    70   26.6    11    135.4    12.5    999.0   0.00  
 268    6:10   29.0    70   25.1    10    127.6    11.3    999.0   0.00  
 268    6:20   56.0    71   27.4    10    124.4    10.8    999.0   0.00  
 268    6:30   94.0    72   31.6     9    126.1    10.8    999.0   0.00  
 268    6:40  132.0    72   33.8    10    130.8    11.3    999.0   0.00  
 268    6:50  169.0    71   29.0    10    131.2    11.3    999.0   0.00  
 268    7:00  205.0    71   33.2     9    128.1    11.3    999.0   0.00  
 268    7:10  241.0    72   36.1     7    145.8     9.6    999.0   0.00  
 268    7:20  277.0    73   39.5     7    150.6    10.2    999.0   0.00  
 268    7:30  313.0    74   38.2     6    154.5     9.0    999.0   0.00  
 268    7:40  348.0    74   40.1     6    162.4     7.8    999.0   0.00  
 268    7:50  382.0    74   47.7     5    164.8     7.2    999.0   0.00  
 268    8:00  413.0    74   48.5     4    160.7     6.0    999.0   0.00  
 268    8:10  441.0    75   45.7     4    159.4     5.4    999.0   0.00  
 268    8:20  474.0    76   44.1     5    165.5     8.4    999.0   0.00  
 268    8:30  505.0    76   46.8     5    161.2     7.2    999.0   0.00  
 268    8:40  534.0    78   47.0     4    165.2     6.6    999.0   0.00  
 268    8:50  561.0    78   46.8     5    169.3     7.8    999.0   0.00  
 268    9:00  589.0    79   35.6     6    144.4    10.2    999.0   0.00  
 268    9:10  617.0    79   36.2     8    140.6    11.9    999.0   0.00  
 268    9:20  642.0    79   35.8     8    137.4    13.1    999.0   0.00  
 268    9:30  667.0    80   34.4     8    135.2    11.9    999.0   0.00  
 268    9:40  692.0    80   34.4     8    135.1    11.3    999.0   0.00  
 268    9:50  714.0    80   34.5     8    133.1    11.3    999.0   0.00  
 268   10:00  735.0    80   32.3     9    136.6    12.5    999.0   0.00  
 268   10:10  755.0    80   35.0     9    138.7    13.1    999.0   0.00  
 268   10:20  775.0    80   34.9     9    135.9    12.5    999.0   0.00  
 268   10:30  793.0    80   37.5     9    126.7    12.5    999.0   0.00  
 268   10:40  808.0    79   37.5     9    122.3    12.5    999.0   0.00  
 268   10:50  821.0    80   36.3     9    125.0    11.9    999.0   0.00  
 268   11:00  832.0    80   35.8     9    125.8    12.5    999.0   0.00  
 268   11:10  842.0    80   38.3     8    124.2    11.3    999.0   0.00  
 268   11:20  850.0    81   39.2     4    130.2     8.4    999.0   0.00  
 268   11:30  855.0    80   44.2     5    174.9     8.4    999.0   0.00  
 268   11:40  859.0    78   44.8     4    185.2     7.2    999.0   0.00  
 268   11:50  861.0    80   37.9     3    102.4     5.4    999.0   0.00  
 268   12:00  859.0    82   42.8     3    208.9     7.2    999.0   0.00  
 268   12:10  856.0    82   49.9     4    185.5     7.8    999.0   0.00  
 268   12:20  850.0    77   64.2     6    181.5     9.0    999.0   0.00  
 268   12:30  842.0    79   61.7     4    162.2     7.8    999.0   0.00  
 268   12:40  833.0    79   63.0     4    177.2     7.2    999.0   0.00  
 268   12:50  824.0    78   66.1     4    187.9     7.2    999.0   0.00  
 268   13:00  814.0    80   63.4     3    255.0     4.8    999.0   0.00  
 268   13:10  798.0    81   61.0     3    188.5     6.0    999.0   0.00  
 268   13:20  784.0    79   64.9     5    176.8     9.0    999.0   0.00  
 268   13:30  771.0    77   68.0     7    181.4     9.0    999.0   0.00  
 268   13:40  753.0    77   67.0     6    182.3     9.6    999.0   0.00  
 268   13:50  732.0    80   59.5     4    178.8     6.6    999.0   0.00  
 268   14:00  706.0    83   50.4     3    357.1     6.0    999.0   0.00  
 268   14:10  684.0    83   55.0     3    212.0     4.8    999.0   0.00  
 268   14:20  661.0    83   56.3     3    298.8     6.0    999.0   0.00  
 268   14:30  635.0    84   56.2     3    306.0     6.0    999.0   0.00  
 268   14:40  611.0    84   56.2     3    322.5     5.4    999.0   0.00  
 268   14:50  581.0    81   56.4     4    305.5     8.4    999.0   0.00  
 268   15:00  553.0    82   55.7     3    292.8     5.4    999.0   0.00  
 268   15:10  523.0    82   57.5     3    193.7     6.0    999.0   0.00  
 268   15:20  492.0    79   64.2     4    181.9     6.0    999.0   0.00  
 268   15:30  459.0    78   65.8     3    189.5     6.0    999.0   0.00  
 268   15:40  425.0    78   66.0     4    336.7     7.2    999.0   0.00  
 268   15:50  397.0    74   73.1     5    344.8     6.6    999.0   0.00  
 268   16:00  366.0    74   75.7     5    329.8     7.8    999.0   0.00  
 268   16:10  332.0    72   78.7     6    340.8     7.2    999.0   0.00  
 268   16:20  299.0    71   81.4     5    339.4     6.0    999.0   0.00  
 268   16:30  265.0    71   82.0     5    338.2     7.8    999.0   0.00  
 268   16:40  231.0    70   84.1     5    347.8     6.6    999.0   0.00  
 268   16:50  193.0    70   84.3     4    346.2     5.4    999.0   0.00  
 268   17:00  159.0    69   85.3     6    350.0     7.2    999.0   0.00  
 268   17:10  127.0    68   87.8     6    346.1     7.2    999.0   0.00  
 268   17:20   88.0    68   88.6     5    343.4     6.0    999.0   0.00  
 268   17:30   49.0    68   85.1     5    341.2     6.0    999.0   0.00  
 268   17:40   19.0    68   80.9     6    341.5     7.8    999.0   0.00  
 268   17:50    9.0    67   86.2     6    342.1     7.2    999.0   0.00  
 268   18:00    3.0    69   81.5     6    349.4     7.2    999.0   0.00  
 268   18:10    0.0    71   71.4     7    340.9     8.4    999.0   0.00  
 268   18:20    0.0    71   63.2     7    342.0     7.8    999.0   0.00  
 268   18:30    0.0    71   55.9     7    333.7     8.4    999.0   0.00  
 268   18:40    0.0    71   49.4     7    328.5     7.8    999.0   0.00  
 268   18:50    0.0    71   49.0     7    333.9     8.4    999.0   0.00  
 268   19:00    0.0    71   48.3     8    331.8     9.0    999.0   0.00  
 268   19:10    0.0    71   46.9     8    329.5     9.6    999.0   0.00  
 268   19:20    0.0    71   43.7     8    325.9     9.0    999.0   0.00  
 268   19:30    0.0    72   40.6     7    335.7     9.0    999.0   0.00  
 268   19:40    0.0    73   39.2     6    341.5     7.8    999.0   0.00  
 268   19:50    0.0    73   38.4     7    336.1     7.2    999.0   0.00  
 268   20:00    0.0    72   39.8     7    342.2     7.8    999.0   0.00  
 268   20:10    0.0    72   40.6     6    340.6     7.2    999.0   0.00  
 268   20:20    0.0    72   40.5     5    327.6     6.0    999.0   0.00  
 268   20:30    0.0    72   39.3     2    317.7     4.2    999.0   0.00  
 268   20:40    0.0    72   40.4     1    176.0     1.8    999.0   0.00  
 268   20:50    0.0    72   41.2     1    339.4     1.8    999.0   0.00  
 268   21:00    0.0    72   41.0     2     54.7     3.0    999.0   0.00  
 268   21:10    0.0    72   40.9     3     75.6     4.2    999.0   0.00  
 268   21:20    0.0    73   41.4     3    147.1     4.2    999.0   0.00  
 268   21:30    0.0    73   42.0     2    113.2     3.6    999.0   0.00  
 268   21:40    0.0    72   41.0     2     85.2     4.2    999.0   0.00  
 268   21:50    0.0    72   37.1     4     60.7     4.2    999.0   0.00  
 268   22:00    0.0    72   37.6     4     42.4     4.2    999.0   0.00  
 268   22:10    0.0    72   39.5     3     30.6     4.2    999.0   0.00  
 268   22:20    0.0    72   39.4     2     53.6     2.4    999.0   0.00  
 268   22:30    0.0    72   39.2     2     74.6     3.0    999.0   0.00  
 268   22:40    0.0    73   41.0     2     95.8     3.0    999.0   0.00  
 268   22:50    0.0    72   41.9     2     98.6     3.6    999.0   0.00  
 268   23:00    0.0    74   41.0     3     77.8     4.2    999.0   0.00  

Return to Cactus Peak graphs page.


Western Regional Climate Center,wrcc@dri.edu